Time;durP1;ratioP1;P1;durP2;ratioP2;P2;SDS_P1;SDS_P2;PMS_P1;PMS_P2;Temp;Humidity;BMP_temperature;BMP_pressure;BME280_temperature;BME280_humidity;BME280_pressure;Samples;Min_cycle;Max_cycle;Signal;HPM_P1;HPM_P2
2023/08/26 00:00:51;;;;;;;0.10;0.10;;;;;;;17.62;60.86;100320.31;7362670;19;20011;-57
2023/08/26 00:03:16;;;;;;;0.05;0.05;;;;;;;17.59;61.35;100320.50;7365880;19;20055;-58
2023/08/26 00:05:43;;;;;;;0.08;0.08;;;;;;;17.56;61.16;100318.03;7368610;19;20006;-58
2023/08/26 00:08:08;;;;;;;0.07;0.07;;;;;;;17.54;61.39;100323.41;7362925;19;20025;-57
2023/08/26 00:10:34;;;;;;;0.00;0.00;;;;;;;17.52;61.56;100324.41;7365922;19;20442;-58
2023/08/26 00:12:59;;;;;;;0.10;0.10;;;;;;;17.50;61.42;100321.88;7363315;19;20019;-57
2023/08/26 00:15:24;;;;;;;0.00;0.00;;;;;;;17.50;61.41;100331.59;7374674;19;20481;-56
2023/08/26 00:17:50;;;;;;;0.00;0.00;;;;;;;17.48;61.59;100333.44;7370627;19;20024;-58
2023/08/26 00:20:15;;;;;;;0.10;0.10;;;;;;;17.37;61.81;100311.16;7366382;19;20010;-57
2023/08/26 00:22:41;;;;;;;0.00;0.00;;;;;;;17.46;61.36;100327.41;7367091;19;20011;-57
2023/08/26 00:25:07;;;;;;;0.00;0.00;;;;;;;17.44;61.34;100326.66;7365456;19;20019;-57
2023/08/26 00:27:32;;;;;;;0.08;0.08;;;;;;;17.43;61.46;100325.78;7366012;19;20769;-56
2023/08/26 00:29:58;;;;;;;0.00;0.00;;;;;;;17.42;60.95;100329.38;7365815;19;20082;-58
2023/08/26 00:32:23;;;;;;;0.00;0.00;;;;;;;17.38;60.87;100326.03;7366333;19;20081;-57
2023/08/26 00:34:49;;;;;;;0.00;0.00;;;;;;;17.33;60.83;100314.91;7364395;19;20021;-57
2023/08/26 00:37:14;;;;;;;0.10;0.10;;;;;;;17.33;60.71;100322.81;7366952;19;20012;-58
2023/08/26 00:39:39;;;;;;;0.00;0.00;;;;;;;17.30;60.99;100320.38;7363435;19;20771;-57
2023/08/26 00:42:05;;;;;;;0.03;0.03;;;;;;;17.28;60.99;100319.59;7366373;19;20070;-57
2023/08/26 00:44:30;;;;;;;0.00;0.00;;;;;;;17.25;60.85;100319.78;7366718;19;20557;-56
2023/08/26 00:46:57;;;;;;;0.00;0.00;;;;;;;17.14;60.95;100314.25;7365682;19;20882;-55
2023/08/26 00:49:23;;;;;;;0.03;0.03;;;;;;;17.20;61.24;100319.19;7358905;19;20006;-58
2023/08/26 00:51:49;;;;;;;0.00;0.00;;;;;;;17.17;60.80;100316.72;7366504;19;20011;-57
2023/08/26 00:54:15;;;;;;;0.00;0.00;;;;;;;17.06;60.87;100308.56;7364080;19;20019;-57
2023/08/26 00:56:40;;;;;;;0.00;0.00;;;;;;;17.11;60.84;100322.34;7367419;19;20024;-58
2023/08/26 00:59:06;;;;;;;0.00;0.00;;;;;;;17.07;60.70;100311.09;7363622;19;20013;-57
2023/08/26 01:01:32;;;;;;;0.00;0.00;;;;;;;17.05;60.92;100307.69;7366899;19;20034;-58
2023/08/26 01:03:58;;;;;;;0.00;0.00;;;;;;;17.01;61.06;100308.81;7362955;19;20078;-59
2023/08/26 01:06:23;;;;;;;0.00;0.00;;;;;;;16.99;60.72;100304.56;7364595;19;20390;-58
2023/08/26 01:08:50;;;;;;;0.10;0.10;;;;;;;16.80;60.98;100278.34;7368573;19;20620;-57
2023/08/26 01:11:24;;;;;;;0.10;0.10;;;;;;;16.95;60.72;100300.38;7364998;19;20010;-57
2023/08/26 01:14:14;;;;;;;0.00;0.00;;;;;;;16.90;60.28;100289.25;7365644;19;20027;-57
2023/08/26 01:16:40;;;;;;;0.10;0.10;;;;;;;16.89;60.71;100290.19;7368680;19;20014;-57
2023/08/26 01:19:09;;;;;;;0.10;0.10;;;;;;;16.88;60.74;100291.09;7359620;19;20041;-57
2023/08/26 01:21:39;;;;;;;0.10;0.10;;;;;;;16.85;60.76;100292.97;7369091;19;20014;-58
2023/08/26 01:24:05;;;;;;;0.00;0.00;;;;;;;16.73;61.00;100271.72;7366492;19;20010;-58
2023/08/26 01:26:31;;;;;;;0.05;0.05;;;;;;;16.79;61.04;100285.41;7371030;19;20019;-58
2023/08/26 01:28:56;;;;;;;0.10;0.10;;;;;;;16.78;61.18;100289.00;7370305;19;20011;-59
2023/08/26 01:31:22;;;;;;;0.00;0.00;;;;;;;16.75;61.41;100286.50;7370839;19;20820;-56
2023/08/26 01:33:58;;;;;;;0.10;0.10;;;;;;;16.76;60.73;100288.22;7370770;19;20033;-58
2023/08/26 01:36:25;;;;;;;0.10;0.10;;;;;;;16.72;61.47;100291.09;7371379;19;20018;-58
2023/08/26 01:38:54;;;;;;;0.00;0.00;;;;;;;16.61;61.55;100270.56;7371540;19;20837;-58
2023/08/26 01:41:21;;;;;;;0.10;0.10;;;;;;;16.68;61.25;100285.13;7373287;19;20006;-57
2023/08/26 01:43:47;;;;;;;0.10;0.10;;;;;;;16.65;61.89;100285.28;7374148;19;20645;-58
2023/08/26 01:46:15;;;;;;;0.00;0.00;;;;;;;16.65;61.52;100280.00;7373648;19;20006;-57
2023/08/26 01:48:40;;;;;;;0.00;0.00;;;;;;;16.62;61.58;100280.16;7367559;19;20003;-58
2023/08/26 01:51:06;;;;;;;0.10;0.10;;;;;;;16.61;61.82;100294.28;7369178;19;20002;-60
2023/08/26 01:53:31;;;;;;;0.00;0.00;;;;;;;16.49;61.41;100272.09;7372838;19;20018;-58
2023/08/26 01:55:57;;;;;;;0.00;0.00;;;;;;;16.57;61.72;100293.63;7368173;19;20014;-58
2023/08/26 01:58:22;;;;;;;0.00;0.00;;;;;;;16.55;61.50;100289.34;7371659;19;20422;-57
2023/08/26 02:00:47;;;;;;;0.10;0.10;;;;;;;16.52;61.54;100282.44;7378015;19;20029;-58
2023/08/26 02:03:13;;;;;;;0.10;0.10;;;;;;;16.51;61.80;100282.53;7374629;19;20054;-57
2023/08/26 02:05:38;;;;;;;0.00;0.00;;;;;;;16.48;61.50;100282.72;7375117;19;20006;-58
2023/08/26 02:08:04;;;;;;;0.00;0.00;;;;;;;16.47;61.69;100275.72;7372601;19;20111;-58
2023/08/26 02:10:29;;;;;;;0.00;0.00;;;;;;;16.43;62.04;100274.22;7371523;19;20090;-58
2023/08/26 02:12:55;;;;;;;0.00;0.00;;;;;;;16.43;61.83;100282.13;7374101;19;20010;-58
2023/08/26 02:15:20;;;;;;;0.00;0.00;;;;;;;16.39;62.23;100288.47;7372612;19;20094;-58
2023/08/26 02:17:45;;;;;;;0.10;0.10;;;;;;;16.40;62.08;100284.91;7371871;19;20038;-58
2023/08/26 02:20:11;;;;;;;0.08;0.08;;;;;;;16.39;62.18;100283.19;7373906;19;20798;-57
2023/08/26 02:22:36;;;;;;;0.05;0.05;;;;;;;16.39;62.55;100289.31;7369309;19;20039;-57
2023/08/26 02:25:03;;;;;;;0.00;0.00;;;;;;;16.39;62.36;100283.19;7372095;19;20326;-58
2023/08/26 02:27:28;;;;;;;0.10;0.10;;;;;;;16.39;62.32;100288.47;7363427;19;20135;-57
2023/08/26 02:29:54;;;;;;;0.00;0.00;;;;;;;16.38;62.71;100284.16;7370065;19;19995;-58
2023/08/26 02:32:19;;;;;;;0.10;0.10;;;;;;;16.40;62.39;100290.16;7369447;19;20031;-58
2023/08/26 02:34:45;;;;;;;0.10;0.10;;;;;;;16.38;62.49;100281.50;7373018;19;20026;-58
2023/08/26 02:37:10;;;;;;;0.03;0.03;;;;;;;16.37;62.66;100290.31;7366015;19;20093;-56
2023/08/26 02:39:35;;;;;;;0.03;0.03;;;;;;;16.35;62.27;100283.34;7367902;19;20072;-57
2023/08/26 02:42:01;;;;;;;0.00;0.00;;;;;;;16.33;62.62;100281.75;7373683;19;20015;-56
2023/08/26 02:44:26;;;;;;;0.08;0.08;;;;;;;16.33;62.27;100274.69;7368682;19;20608;-57
2023/08/26 02:46:52;;;;;;;0.10;0.10;;;;;;;16.33;62.94;100274.69;7371647;19;20018;-58
2023/08/26 02:49:17;;;;;;;0.10;0.10;;;;;;;16.31;63.04;100276.53;7365272;19;20005;-57
2023/08/26 02:51:42;;;;;;;0.00;0.00;;;;;;;16.30;63.00;100280.13;7372455;19;20492;-58
2023/08/26 02:54:08;;;;;;;0.00;0.00;;;;;;;16.30;62.58;100277.47;7365126;19;20010;-56
2023/08/26 02:56:33;;;;;;;0.10;0.10;;;;;;;16.27;62.76;100272.38;7370966;19;20018;-57
2023/08/26 02:58:59;;;;;;;0.10;0.10;;;;;;;16.29;63.05;100273.16;7371047;19;20670;-58
2023/08/26 03:01:24;;;;;;;0.00;0.00;;;;;;;16.30;62.71;100269.56;7368250;19;20006;-58
2023/08/26 03:03:50;;;;;;;0.00;0.00;;;;;;;16.29;62.70;100267.88;7370653;19;20042;-57
2023/08/26 03:06:15;;;;;;;0.00;0.00;;;;;;;16.26;62.81;100268.03;7369846;19;20011;-58
2023/08/26 03:08:40;;;;;;;0.10;0.10;;;;;;;16.28;62.94;100271.44;7371099;19;20010;-57
2023/08/26 03:11:09;;;;;;;0.10;0.10;;;;;;;16.27;62.85;100264.47;7369438;19;20010;-58
2023/08/26 03:13:35;;;;;;;0.00;0.00;;;;;;;16.26;63.01;100265.38;7370542;19;20002;-58
2023/08/26 03:16:10;;;;;;;0.00;0.00;;;;;;;16.27;62.49;100264.47;7371714;19;20379;-58
2023/08/26 03:18:39;;;;;;;0.10;0.10;;;;;;;16.21;63.26;100258.66;7353838;19;20039;-58
2023/08/26 03:21:06;;;;;;;0.10;0.10;;;;;;;16.23;62.91;100262.94;7373593;19;20031;-58
2023/08/26 03:23:31;;;;;;;0.00;0.00;;;;;;;16.18;62.91;100254.44;7368735;19;20013;-58
2023/08/26 03:25:56;;;;;;;0.00;0.00;;;;;;;16.22;62.78;100258.59;7368721;19;20018;-57
2023/08/26 03:28:22;;;;;;;0.10;0.10;;;;;;;16.21;63.28;100254.25;7371041;19;20007;-57
2023/08/26 03:30:47;;;;;;;0.10;0.10;;;;;;;16.20;63.16;100252.56;7371158;19;20022;-58
2023/08/26 03:33:13;;;;;;;0.10;0.10;;;;;;;16.20;63.10;100256.97;7369785;19;20584;-58
2023/08/26 03:35:39;;;;;;;0.00;0.00;;;;;;;16.02;63.06;100237.75;7372038;19;20041;-57
2023/08/26 03:38:05;;;;;;;0.10;0.10;;;;;;;16.17;63.15;100258.00;7369390;19;20443;-58
2023/08/26 03:40:30;;;;;;;0.00;0.00;;;;;;;16.17;63.31;100267.66;7366948;19;20007;-58
2023/08/26 03:42:56;;;;;;;0.00;0.00;;;;;;;16.16;62.85;100261.53;7349418;19;20315;-58
2023/08/26 03:45:21;;;;;;;0.03;0.03;;;;;;;16.17;62.97;100263.28;7371939;19;20022;-56
2023/08/26 03:47:47;;;;;;;0.00;0.00;;;;;;;16.16;62.85;100263.34;7371988;19;20566;-58
2023/08/26 03:50:12;;;;;;;0.10;0.10;;;;;;;16.11;63.27;100249.56;7368512;19;20018;-58
2023/08/26 03:52:38;;;;;;;0.10;0.10;;;;;;;16.14;63.09;100252.88;7369964;19;20417;-57
2023/08/26 03:55:04;;;;;;;0.00;0.00;;;;;;;16.15;62.91;100265.13;7369526;19;20537;-57
2023/08/26 03:57:30;;;;;;;0.00;0.00;;;;;;;16.13;62.83;100269.63;7369808;19;20014;-56
2023/08/26 03:59:55;;;;;;;0.05;0.05;;;;;;;16.12;63.11;100264.41;7370522;19;20018;-58
2023/08/26 04:02:20;;;;;;;0.10;0.10;;;;;;;16.12;63.02;100265.31;7368416;19;20016;-58
2023/08/26 04:04:49;;;;;;;0.10;0.10;;;;;;;16.12;63.09;100257.41;7372285;19;20022;-57
2023/08/26 04:07:14;;;;;;;0.10;0.10;;;;;;;16.11;63.40;100263.56;7369815;19;20495;-57
2023/08/26 04:09:40;;;;;;;0.10;0.10;;;;;;;16.10;63.26;100251.34;7367379;19;20018;-58
2023/08/26 04:12:06;;;;;;;0.03;0.03;;;;;;;16.10;63.11;100256.59;7370077;19;20482;-58
2023/08/26 04:14:31;;;;;;;0.10;0.10;;;;;;;15.88;63.30;100216.53;7371557;19;20039;-58
2023/08/26 04:16:56;;;;;;;0.10;0.10;;;;;;;16.06;62.94;100249.78;7369369;19;20363;-58
2023/08/26 04:19:22;;;;;;;0.00;0.00;;;;;;;16.04;63.21;100251.66;7369897;19;20010;-57
2023/08/26 04:21:48;;;;;;;0.00;0.00;;;;;;;16.01;62.98;100252.66;7369938;19;20002;-58
2023/08/26 04:24:13;;;;;;;0.00;0.00;;;;;;;15.99;63.04;100262.44;7369244;19;20019;-58
2023/08/26 04:26:39;;;;;;;0.00;0.00;;;;;;;15.97;63.41;100259.03;7368358;19;20047;-57
2023/08/26 04:29:04;;;;;;;0.00;0.00;;;;;;;15.95;63.56;100267.94;7371080;19;20010;-57
2023/08/26 04:31:31;;;;;;;0.08;0.08;;;;;;;15.95;63.07;100267.94;7369374;19;20042;-58
2023/08/26 04:33:56;;;;;;;0.00;0.00;;;;;;;15.93;63.67;100269.81;7369310;19;20018;-58
2023/08/26 04:36:22;;;;;;;0.00;0.00;;;;;;;15.94;63.52;100274.16;7371165;19;20010;-56
2023/08/26 04:38:47;;;;;;;0.00;0.00;;;;;;;15.92;63.74;100270.75;7371172;19;20021;-57
2023/08/26 04:41:12;;;;;;;0.00;0.00;;;;;;;15.93;63.95;100275.09;7357911;19;21144;-58
2023/08/26 04:43:40;;;;;;;0.00;0.00;;;;;;;15.93;63.88;100277.72;7369389;19;20007;-57
2023/08/26 04:46:06;;;;;;;0.00;0.00;;;;;;;15.92;63.68;100276.88;7369066;19;20002;-59
2023/08/26 04:48:31;;;;;;;0.10;0.10;;;;;;;15.92;63.85;100263.69;7370058;19;20074;-58
2023/08/26 04:50:56;;;;;;;0.00;0.00;;;;;;;15.94;63.98;100282.03;7366288;19;20592;-58
2023/08/26 04:53:22;;;;;;;0.00;0.00;;;;;;;15.94;64.12;100263.59;7369899;19;20785;-58
2023/08/26 04:55:51;;;;;;;0.10;0.10;;;;;;;15.95;63.30;100265.31;7370030;19;20018;-57
2023/08/26 04:58:17;;;;;;;0.03;0.03;;;;;;;15.93;63.92;100264.56;7375388;19;20022;-58
2023/08/26 05:00:44;;;;;;;0.10;0.10;;;;;;;15.93;63.76;100270.66;7377150;19;20042;-57
2023/08/26 05:03:09;;;;;;;0.00;0.00;;;;;;;15.91;63.94;100261.97;7378496;19;20502;-57
2023/08/26 05:05:35;;;;;;;0.00;0.00;;;;;;;15.91;63.72;100271.66;7378634;19;20014;-58
2023/08/26 05:08:00;;;;;;;0.00;0.00;;;;;;;15.87;63.94;100265.72;7378311;19;20090;-56
2023/08/26 05:10:26;;;;;;;0.03;0.03;;;;;;;15.85;63.51;100274.63;7373960;19;20031;-58
2023/08/26 05:12:52;;;;;;;0.00;0.00;;;;;;;15.83;63.67;100274.69;7373680;19;20017;-58
2023/08/26 05:15:17;;;;;;;0.00;0.00;;;;;;;15.81;63.80;100271.28;7370008;19;20014;-57
2023/08/26 05:17:42;;;;;;;0.03;0.03;;;;;;;15.80;63.77;100280.97;7375634;19;20446;-58
2023/08/26 05:20:08;;;;;;;0.00;0.00;;;;;;;15.79;63.98;100273.16;7371288;19;20040;-58
2023/08/26 05:22:34;;;;;;;0.00;0.00;;;;;;;15.78;63.76;100277.56;7376159;19;20535;-58
2023/08/26 05:25:05;;;;;;;0.00;0.00;;;;;;;15.75;64.13;100275.06;7373919;19;20611;-58
2023/08/26 05:27:30;;;;;;;0.00;0.00;;;;;;;15.73;63.91;100279.56;7377542;19;20026;-58
2023/08/26 05:29:56;;;;;;;0.00;0.00;;;;;;;15.73;64.23;100282.22;7368095;19;20058;-57
2023/08/26 05:32:21;;;;;;;0.00;0.00;;;;;;;15.72;64.32;100277.88;7374494;19;20014;-58
2023/08/26 05:34:47;;;;;;;0.00;0.00;;;;;;;15.70;64.33;100269.19;7368893;19;20719;-56
2023/08/26 05:37:12;;;;;;;0.00;0.00;;;;;;;15.70;64.13;100284.13;7363707;19;20501;-57
2023/08/26 05:39:37;;;;;;;0.00;0.00;;;;;;;15.68;64.43;100281.59;7375807;19;20011;-58
2023/08/26 05:42:03;;;;;;;0.00;0.00;;;;;;;15.69;64.53;100285.06;7374677;19;20025;-58
2023/08/26 05:44:28;;;;;;;0.10;0.10;;;;;;;15.69;63.88;100288.56;7376594;19;20576;-56
2023/08/26 05:46:55;;;;;;;0.08;0.08;;;;;;;15.69;64.20;100285.06;7373108;19;20077;-58
2023/08/26 05:49:21;;;;;;;0.00;0.00;;;;;;;15.68;64.19;100286.00;7376202;19;20029;-58
2023/08/26 05:51:46;;;;;;;0.05;0.05;;;;;;;15.68;64.68;100284.22;7375442;19;20122;-56
2023/08/26 05:54:11;;;;;;;0.00;0.00;;;;;;;15.70;64.28;100285.00;7381918;19;19999;-58
2023/08/26 05:56:37;;;;;;;0.03;0.03;;;;;;;15.69;64.54;100287.72;7374947;19;20015;-57
2023/08/26 05:59:02;;;;;;;0.10;0.10;;;;;;;15.68;64.65;100286.84;7372178;19;20377;-58
2023/08/26 06:01:28;;;;;;;0.05;0.05;;;;;;;15.69;64.64;100296.44;7372528;19;20006;-58
2023/08/26 06:03:55;;;;;;;0.00;0.00;;;;;;;15.68;64.40;100294.75;7372182;19;20026;-58
2023/08/26 06:06:20;;;;;;;0.00;0.00;;;;;;;15.67;64.08;100285.16;7380496;19;20014;-58
2023/08/26 06:08:46;;;;;;;0.05;0.05;;;;;;;15.68;64.57;100293.91;7371559;19;20495;-59
2023/08/26 06:11:11;;;;;;;0.00;0.00;;;;;;;15.70;64.25;100299.94;7373115;19;20022;-58
2023/08/26 06:13:36;;;;;;;0.08;0.08;;;;;;;15.67;64.65;100298.31;7379934;19;20002;-58
2023/08/26 06:16:02;;;;;;;0.00;0.00;;;;;;;15.69;64.65;100298.25;7375608;19;20474;-58
2023/08/26 06:18:28;;;;;;;0.00;0.00;;;;;;;15.71;64.46;100299.00;7373639;19;20008;-58
2023/08/26 06:20:53;;;;;;;0.10;0.10;;;;;;;15.73;64.85;100305.06;7375501;19;20018;-57
2023/08/26 06:23:19;;;;;;;0.00;0.00;;;;;;;15.74;64.46;100302.34;7373615;19;20383;-57
2023/08/26 06:25:52;;;;;;;0.00;0.00;;;;;;;15.78;64.26;100298.63;7376436;19;20098;-57
2023/08/26 06:28:18;;;;;;;0.10;0.10;;;;;;;15.80;64.53;100301.16;7372764;19;20007;-58
2023/08/26 06:30:43;;;;;;;0.00;0.00;;;;;;;15.81;64.77;100302.88;7369971;19;20011;-59
2023/08/26 06:33:09;;;;;;;0.03;0.03;;;;;;;15.85;64.50;100293.03;7367522;19;21682;-58
2023/08/26 06:35:34;;;;;;;0.00;0.00;;;;;;;15.87;64.47;100296.47;7374677;19;20018;-57
2023/08/26 06:38:00;;;;;;;0.00;0.00;;;;;;;15.90;64.62;100301.56;7371574;19;21639;-58
2023/08/26 06:40:25;;;;;;;0.10;0.10;;;;;;;15.91;64.75;100298.00;7373220;19;20014;-56
2023/08/26 06:42:51;;;;;;;0.10;0.10;;;;;;;15.91;64.33;100292.72;7374526;19;20017;-57
2023/08/26 06:45:16;;;;;;;0.00;0.00;;;;;;;15.94;64.49;100303.13;7370584;19;20081;-58
2023/08/26 06:47:41;;;;;;;0.00;0.00;;;;;;;15.95;64.09;100304.81;7369147;19;20083;-58
2023/08/26 06:50:08;;;;;;;0.00;0.00;;;;;;;15.94;64.23;100303.97;7369183;19;20354;-57
2023/08/26 06:52:33;;;;;;;0.00;0.00;;;;;;;15.95;64.15;100304.81;7368133;19;20015;-58
2023/08/26 06:54:59;;;;;;;0.10;0.10;;;;;;;15.98;64.71;100309.94;7373589;19;20014;-57
2023/08/26 06:57:24;;;;;;;0.00;0.00;;;;;;;15.99;64.67;100301.94;7372044;19;20024;-58
2023/08/26 06:59:50;;;;;;;0.10;0.10;;;;;;;16.01;64.83;100307.97;7372130;19;20030;-58
2023/08/26 07:02:15;;;;;;;0.00;0.00;;;;;;;16.04;64.68;100314.88;7367607;19;20010;-57
2023/08/26 07:04:43;;;;;;;0.10;0.10;;;;;;;15.92;64.47;100286.56;7371203;19;20009;-57
2023/08/26 07:07:11;;;;;;;0.10;0.10;;;;;;;16.13;64.92;100313.56;7369985;19;20025;-57
2023/08/26 07:09:37;;;;;;;0.10;0.10;;;;;;;16.17;64.87;100313.31;7369318;19;20626;-58
2023/08/26 07:12:03;;;;;;;0.08;0.08;;;;;;;16.20;64.50;100307.88;7374003;19;20010;-57
2023/08/26 07:14:28;;;;;;;0.00;0.00;;;;;;;16.27;64.52;100306.66;7369631;19;20017;-57
2023/08/26 07:16:54;;;;;;;0.00;0.00;;;;;;;16.33;64.64;100311.59;7370271;19;20498;-57
2023/08/26 07:19:19;;;;;;;0.10;0.10;;;;;;;16.39;64.75;100309.56;7366993;19;20020;-58
2023/08/26 07:21:46;;;;;;;0.00;0.00;;;;;;;16.46;65.04;100310.91;7370194;19;20013;-57
2023/08/26 07:24:11;;;;;;;0.00;0.00;;;;;;;16.53;64.99;100312.31;7369211;19;20026;-58
2023/08/26 07:26:37;;;;;;;0.00;0.00;;;;;;;16.59;64.99;100310.19;7365304;19;20018;-58
2023/08/26 07:29:02;;;;;;;0.00;0.00;;;;;;;16.69;64.69;100307.91;7369864;19;20029;-58
2023/08/26 07:31:27;;;;;;;0.00;0.00;;;;;;;16.77;64.54;100304.88;7367367;19;20010;-58
2023/08/26 07:33:53;;;;;;;0.10;0.10;;;;;;;16.85;64.81;100310.59;7367609;19;20409;-60
2023/08/26 07:36:18;;;;;;;0.10;0.10;;;;;;;16.92;64.64;100308.47;7368707;19;20010;-58
2023/08/26 07:38:44;;;;;;;0.00;0.00;;;;;;;16.98;64.39;100308.13;7367632;19;20011;-57
2023/08/26 07:41:09;;;;;;;0.00;0.00;;;;;;;17.04;64.22;100313.06;7369580;19;20044;-59
2023/08/26 07:43:37;;;;;;;0.10;0.10;;;;;;;17.11;63.87;100317.06;7364288;19;20010;-58
2023/08/26 07:46:03;;;;;;;0.00;0.00;;;;;;;17.18;63.73;100321.03;7371519;19;20044;-58
2023/08/26 07:48:28;;;;;;;0.00;0.00;;;;;;;17.24;63.86;100320.72;7371170;19;20011;-58
2023/08/26 07:50:54;;;;;;;0.00;0.00;;;;;;;17.31;63.81;100318.59;7377198;19;20616;-56
2023/08/26 07:53:19;;;;;;;0.00;0.00;;;;;;;17.37;63.87;100316.44;7377455;19;20006;-58
2023/08/26 07:55:44;;;;;;;0.00;0.00;;;;;;;17.45;63.81;100317.81;7375030;19;20377;-58
2023/08/26 07:58:10;;;;;;;0.00;0.00;;;;;;;17.53;63.63;100315.56;7369696;19;20012;-58
2023/08/26 08:00:35;;;;;;;0.03;0.03;;;;;;;17.60;63.48;100323.03;7368977;19;20034;-58
2023/08/26 08:03:00;;;;;;;0.00;0.00;;;;;;;17.60;63.40;100316.91;7369120;19;20462;-58
2023/08/26 08:05:26;;;;;;;0.00;0.00;;;;;;;17.57;63.13;100290.69;7367195;19;20040;-58
2023/08/26 08:07:51;;;;;;;0.10;0.10;;;;;;;17.80;63.31;100329.84;7369850;19;20098;-58
2023/08/26 08:10:17;;;;;;;0.00;0.00;;;;;;;17.88;63.41;100322.31;7368463;19;20003;-58
2023/08/26 08:12:42;;;;;;;0.03;0.03;;;;;;;17.97;63.45;100326.19;7365748;19;20006;-58
2023/08/26 08:15:08;;;;;;;0.00;0.00;;;;;;;18.08;63.21;100328.19;7365815;19;20030;-58
2023/08/26 08:17:33;;;;;;;0.10;0.10;;;;;;;18.17;63.27;100327.66;7366299;19;21086;-58
2023/08/26 08:19:59;;;;;;;0.00;0.00;;;;;;;18.27;62.87;100320.88;7365093;19;20017;-58
2023/08/26 08:22:39;;;;;;;0.00;0.00;;;;;;;18.45;62.64;100331.25;7365603;19;20459;-58
2023/08/26 08:25:05;;;;;;;0.10;0.10;;;;;;;18.48;63.01;100321.34;7365297;19;20450;-56
2023/08/26 08:27:31;;;;;;;0.00;0.00;;;;;;;18.56;62.69;100326.19;7366620;19;20494;-58
2023/08/26 08:29:57;;;;;;;0.00;0.00;;;;;;;18.61;62.40;100324.09;7363443;19;20074;-57
2023/08/26 08:32:23;;;;;;;0.00;0.00;;;;;;;18.67;62.09;100326.34;7368819;19;20027;-57
2023/08/26 08:34:48;;;;;;;0.10;0.10;;;;;;;18.68;61.61;100328.09;7368034;19;20003;-58
2023/08/26 08:37:14;;;;;;;0.08;0.08;;;;;;;18.69;61.67;100324.47;7370691;19;20035;-59
2023/08/26 08:39:39;;;;;;;0.10;0.10;;;;;;;18.70;61.86;100326.19;7355647;19;20002;-57
2023/08/26 08:42:08;;;;;;;0.00;0.00;;;;;;;18.73;61.73;100326.00;7361567;19;20024;-58
2023/08/26 08:44:35;;;;;;;0.10;0.10;;;;;;;18.73;61.45;100320.72;7366794;19;20017;-58
2023/08/26 08:47:04;;;;;;;0.10;0.10;;;;;;;18.74;61.73;100317.13;7367733;19;20050;-58
2023/08/26 08:49:30;;;;;;;0.00;0.00;;;;;;;18.76;61.55;100325.81;7366366;19;20022;-56
2023/08/26 08:51:57;;;;;;;0.00;0.00;;;;;;;18.78;61.50;100323.91;7347352;19;20042;-58
2023/08/26 08:54:24;;;;;;;0.10;0.10;;;;;;;18.79;61.75;100325.59;7362516;19;20010;-58
2023/08/26 08:56:51;;;;;;;0.00;0.00;;;;;;;18.80;61.52;100326.44;7365760;19;20101;-57
2023/08/26 08:59:17;;;;;;;0.10;0.10;;;;;;;18.84;61.35;100331.47;7362632;19;20007;-59
2023/08/26 09:01:44;;;;;;;0.10;0.10;;;;;;;18.87;61.33;100333.94;7359372;19;20018;-57
2023/08/26 09:04:09;;;;;;;0.00;0.00;;;;;;;18.91;61.72;100324.84;7359829;19;20002;-57
2023/08/26 09:06:35;;;;;;;0.00;0.00;;;;;;;18.94;61.74;100334.38;7364309;19;20369;-57
2023/08/26 09:09:01;;;;;;;0.05;0.05;;;;;;;19.05;61.69;100333.69;7359196;19;20481;-58
2023/08/26 09:11:27;;;;;;;0.10;0.10;;;;;;;19.08;61.10;100336.16;7354821;19;20495;-58
2023/08/26 09:13:53;;;;;;;0.00;0.00;;;;;;;19.14;61.40;100341.91;7358153;19;20002;-58
2023/08/26 09:16:28;;;;;;;0.10;0.10;;;;;;;19.24;60.58;100342.16;7354146;19;20047;-58
2023/08/26 09:18:57;;;;;;;0.10;0.10;;;;;;;19.27;60.80;100347.28;7363254;19;20017;-58
2023/08/26 09:21:22;;;;;;;0.10;0.10;;;;;;;19.28;60.88;100346.31;7358087;19;20014;-57
2023/08/26 09:23:49;;;;;;;0.10;0.10;;;;;;;19.35;60.88;100350.25;7361989;19;19999;-58
2023/08/26 09:26:16;;;;;;;0.10;0.10;;;;;;;19.43;60.70;100355.06;7355298;19;20053;-58
2023/08/26 09:28:49;;;;;;;0.10;0.10;;;;;;;19.54;60.90;100352.56;7358569;19;20033;-58
2023/08/26 09:31:15;;;;;;;0.00;0.00;;;;;;;19.60;60.83;100353.97;7364815;19;20018;-58
2023/08/26 09:33:41;;;;;;;0.00;0.00;;;;;;;19.73;61.41;100354.03;7361063;19;20010;-58
2023/08/26 09:36:06;;;;;;;0.00;0.00;;;;;;;19.87;61.21;100357.47;7358775;19;20027;-58
2023/08/26 09:38:47;;;;;;;0.05;0.05;;;;;;;20.10;60.56;100360.38;7360747;19;20086;-58
2023/08/26 09:41:19;;;;;;;0.10;0.10;;;;;;;20.15;60.10;100358.25;7359897;19;20021;-58
2023/08/26 09:43:47;;;;;;;0.10;0.10;;;;;;;20.12;60.26;100346.06;7363266;19;20011;-58
2023/08/26 09:46:20;;;;;;;0.10;0.10;;;;;;;20.40;59.58;100365.38;7368568;19;20018;-56
2023/08/26 09:48:47;;;;;;;0.17;0.17;;;;;;;20.40;59.32;100374.19;7351304;19;20034;-58
2023/08/26 09:51:23;;;;;;;0.10;0.10;;;;;;;20.47;59.03;100371.97;7365443;19;20557;-58
2023/08/26 09:53:50;;;;;;;0.10;0.10;;;;;;;20.42;59.94;100372.25;7365701;19;20023;-58
2023/08/26 09:56:17;;;;;;;0.10;0.10;;;;;;;20.36;60.04;100356.78;7368087;19;20038;-58
2023/08/26 09:58:43;;;;;;;0.10;0.10;;;;;;;20.54;60.17;100372.41;7365779;19;20077;-58
2023/08/26 10:01:09;;;;;;;0.10;0.10;;;;;;;20.67;60.06;100375.91;7368621;19;20022;-58
2023/08/26 10:03:38;;;;;;;0.10;0.10;;;;;;;20.87;59.70;100383.31;7367457;19;20035;-58
2023/08/26 10:06:06;;;;;;;0.08;0.08;;;;;;;21.05;59.89;100375.84;7367892;19;20027;-59
2023/08/26 10:08:36;;;;;;;0.10;0.10;;;;;;;21.22;59.13;100379.94;7366054;19;20043;-59
2023/08/26 10:11:04;;;;;;;0.10;0.10;;;;;;;21.43;59.50;100382.88;7365390;19;20018;-58
2023/08/26 10:13:35;;;;;;;0.10;0.10;;;;;;;21.71;59.62;100382.56;7369310;19;20011;-59
2023/08/26 10:16:04;;;;;;;0.00;0.00;;;;;;;21.91;58.99;100383.72;7366031;19;20014;-58
2023/08/26 10:18:50;;;;;;;0.00;0.00;;;;;;;22.20;58.45;100384.22;7365592;19;20014;-59
2023/08/26 10:21:16;;;;;;;0.00;0.00;;;;;;;22.30;57.95;100386.16;7365999;19;20379;-58
2023/08/26 10:23:42;;;;;;;0.10;0.10;;;;;;;22.31;57.85;100378.09;7365962;19;20498;-58
2023/08/26 10:26:08;;;;;;;0.10;0.10;;;;;;;22.41;57.15;100389.72;7364456;19;20019;-59
2023/08/26 10:28:35;;;;;;;0.05;0.05;;;;;;;22.36;56.53;100388.38;7364992;19;20011;-58
2023/08/26 10:31:00;;;;;;;;;;;;;;;22.49;56.86;100395.28;7363844;19;20015;-59
2023/08/26 10:33:26;;;;;;;0.10;0.10;;;;;;;22.33;56.15;100394.75;7364781;19;19910;-58
2023/08/26 10:36:13;;;;;;;0.10;0.10;;;;;;;22.39;57.26;100396.94;7365114;19;20010;-58
2023/08/26 10:38:39;;;;;;;0.10;0.10;;;;;;;22.43;57.37;100394.91;7367841;19;20115;-57
2023/08/26 10:41:10;;;;;;;0.10;0.10;;;;;;;22.77;57.58;100404.63;7370721;19;20418;-56
2023/08/26 10:43:35;;;;;;;0.10;0.10;;;;;;;23.01;55.90;100401.00;7364913;19;20013;-58
2023/08/26 10:46:01;;;;;;;0.05;0.05;;;;;;;23.23;55.05;100398.34;7364826;19;20006;-57
2023/08/26 10:48:27;;;;;;;0.00;0.00;;;;;;;23.33;54.82;100395.78;7362379;19;20022;-58
2023/08/26 10:51:02;;;;;;;0.00;0.00;;;;;;;23.46;54.06;100393.81;7362523;19;20022;-59
2023/08/26 10:53:27;;;;;;;0.10;0.10;;;;;;;23.37;54.42;100402.56;7364203;19;20018;-59
2023/08/26 10:56:12;;;;;;;0.10;0.10;;;;;;;23.50;55.90;100387.25;7364956;19;20007;-57
2023/08/26 10:58:48;;;;;;;0.08;0.08;;;;;;;23.73;56.35;100392.56;7364914;19;20280;-57
2023/08/26 11:01:14;;;;;;;0.10;0.10;;;;;;;23.93;55.62;100398.91;7364598;19;20014;-57
2023/08/26 11:03:40;;;;;;;0.10;0.10;;;;;;;24.27;53.70;100407.56;7362180;19;20018;-58
2023/08/26 11:06:08;;;;;;;0.00;0.00;;;;;;;24.47;54.03;100389.88;7364858;19;20017;-59
2023/08/26 11:08:36;;;;;;;0.00;0.00;;;;;;;24.98;54.47;100397.03;7364519;19;20038;-58
2023/08/26 11:11:02;;;;;;;0.10;0.10;;;;;;;25.35;52.85;100395.50;7363870;19;20520;-57
2023/08/26 11:13:27;;;;;;;0.10;0.10;;;;;;;25.78;51.83;100406.84;7365604;19;20007;-56
2023/08/26 11:15:53;;;;;;;0.10;0.10;;;;;;;26.14;48.71;100407.97;7364093;19;20013;-59
2023/08/26 11:18:20;;;;;;;0.08;0.08;;;;;;;26.31;47.39;100398.38;7363389;19;20007;-59
2023/08/26 11:20:46;;;;;;;0.13;0.13;;;;;;;26.38;47.55;100415.53;7364368;19;20014;-58